sensor_id;sensor_type;location;lat;lon;timestamp;pressure;altitude;pressure_sealevel;temperature;humidity
21433;BME280;18592;49.708;10.900;2022-08-07T00:00:33;99346.78;;;22.53;30.09
21433;BME280;18592;49.708;10.900;2022-08-07T00:02:35;99354.63;;;22.51;30.16
21433;BME280;18592;49.708;10.900;2022-08-07T00:04:45;99348.56;;;22.49;30.12
21433;BME280;18592;49.708;10.900;2022-08-07T00:06:46;99348.00;;;22.47;30.39
21433;BME280;18592;49.708;10.900;2022-08-07T00:08:52;99352.25;;;22.44;30.17
21433;BME280;18592;49.708;10.900;2022-08-07T00:10:55;99345.88;;;22.44;30.48
21433;BME280;18592;49.708;10.900;2022-08-07T00:13:02;99338.66;;;22.43;30.17
21433;BME280;18592;49.708;10.900;2022-08-07T00:15:24;99345.16;;;22.38;30.40
21433;BME280;18592;49.708;10.900;2022-08-07T00:17:38;99341.03;;;22.36;30.45
21433;BME280;18592;49.708;10.900;2022-08-07T00:19:41;99335.78;;;22.34;30.43
21433;BME280;18592;49.708;10.900;2022-08-07T00:22:02;99336.41;;;22.31;30.54
21433;BME280;18592;49.708;10.900;2022-08-07T00:24:04;99337.84;;;22.29;30.59
21433;BME280;18592;49.708;10.900;2022-08-07T00:26:09;99330.97;;;22.26;30.73
21433;BME280;18592;49.708;10.900;2022-08-07T00:28:31;99332.69;;;22.22;30.80
21433;BME280;18592;49.708;10.900;2022-08-07T00:30:35;99338.84;;;22.19;31.16
21433;BME280;18592;49.708;10.900;2022-08-07T00:32:36;99340.94;;;22.13;31.14
21433;BME280;18592;49.708;10.900;2022-08-07T00:34:40;99338.78;;;22.10;31.14
21433;BME280;18592;49.708;10.900;2022-08-07T00:36:42;99339.69;;;22.06;31.32
21433;BME280;18592;49.708;10.900;2022-08-07T00:38:44;99334.84;;;21.98;31.68
21433;BME280;18592;49.708;10.900;2022-08-07T00:40:46;99332.47;;;21.91;31.69
21433;BME280;18592;49.708;10.900;2022-08-07T00:42:48;99339.25;;;21.85;31.80
21433;BME280;18592;49.708;10.900;2022-08-07T00:44:50;99337.34;;;21.81;31.86
21433;BME280;18592;49.708;10.900;2022-08-07T00:46:52;99342.69;;;21.77;31.93
21433;BME280;18592;49.708;10.900;2022-08-07T00:48:55;99347.81;;;21.70;32.09
21433;BME280;18592;49.708;10.900;2022-08-07T00:51:02;99342.34;;;21.65;32.41
21433;BME280;18592;49.708;10.900;2022-08-07T00:53:04;99350.78;;;21.60;32.49
21433;BME280;18592;49.708;10.900;2022-08-07T00:55:09;99348.09;;;21.55;32.63
21433;BME280;18592;49.708;10.900;2022-08-07T00:57:11;99353.72;;;21.50;32.49
21433;BME280;18592;49.708;10.900;2022-08-07T00:59:15;99349.38;;;21.44;33.11
21433;BME280;18592;49.708;10.900;2022-08-07T01:01:21;99342.25;;;21.38;33.14
21433;BME280;18592;49.708;10.900;2022-08-07T01:03:23;99332.06;;;21.33;33.38
21433;BME280;18592;49.708;10.900;2022-08-07T01:05:45;99341.28;;;21.29;33.49
21433;BME280;18592;49.708;10.900;2022-08-07T01:07:54;99341.38;;;21.24;33.65
21433;BME280;18592;49.708;10.900;2022-08-07T01:09:56;99332.03;;;21.20;33.95
21433;BME280;18592;49.708;10.900;2022-08-07T01:12:16;99335.16;;;21.13;34.05
21433;BME280;18592;49.708;10.900;2022-08-07T01:14:31;99340.50;;;21.10;33.93
21433;BME280;18592;49.708;10.900;2022-08-07T01:16:37;99335.81;;;21.05;33.92
21433;BME280;18592;49.708;10.900;2022-08-07T01:18:43;99340.31;;;21.01;34.38
21433;BME280;18592;49.708;10.900;2022-08-07T01:20:53;99335.16;;;20.95;34.66
21433;BME280;18592;49.708;10.900;2022-08-07T01:23:03;99335.22;;;20.89;34.62
21433;BME280;18592;49.708;10.900;2022-08-07T01:25:14;99341.38;;;20.86;34.67
21433;BME280;18592;49.708;10.900;2022-08-07T01:27:37;99342.56;;;20.80;34.77
21433;BME280;18592;49.708;10.900;2022-08-07T01:29:51;99337.06;;;20.75;34.65
21433;BME280;18592;49.708;10.900;2022-08-07T01:31:55;99335.72;;;20.73;34.71
21433;BME280;18592;49.708;10.900;2022-08-07T01:34:01;99335.53;;;20.69;34.61
21433;BME280;18592;49.708;10.900;2022-08-07T01:36:08;99345.84;;;20.64;34.69
21433;BME280;18592;49.708;10.900;2022-08-07T01:38:18;99345.34;;;20.57;34.94
21433;BME280;18592;49.708;10.900;2022-08-07T01:40:30;99348.19;;;20.52;34.66
21433;BME280;18592;49.708;10.900;2022-08-07T01:42:34;99346.03;;;20.49;34.74
21433;BME280;18592;49.708;10.900;2022-08-07T01:44:42;99340.56;;;20.44;34.89
21433;BME280;18592;49.708;10.900;2022-08-07T01:46:48;99342.03;;;20.36;34.95
21433;BME280;18592;49.708;10.900;2022-08-07T01:48:51;99346.50;;;20.32;35.22
21433;BME280;18592;49.708;10.900;2022-08-07T01:50:58;99341.34;;;20.25;35.70
21433;BME280;18592;49.708;10.900;2022-08-07T01:53:22;99345.03;;;20.16;35.56
21433;BME280;18592;49.708;10.900;2022-08-07T01:55:49;99347.28;;;20.09;35.93
21433;BME280;18592;49.708;10.900;2022-08-07T01:57:54;99344.00;;;20.07;35.84
21433;BME280;18592;49.708;10.900;2022-08-07T02:00:17;99338.81;;;20.00;35.64
21433;BME280;18592;49.708;10.900;2022-08-07T02:02:34;99336.13;;;19.95;35.95
21433;BME280;18592;49.708;10.900;2022-08-07T02:05:03;99339.22;;;19.89;36.26
21433;BME280;18592;49.708;10.900;2022-08-07T02:07:10;99343.16;;;19.83;36.31
21433;BME280;18592;49.708;10.900;2022-08-07T02:09:16;99342.38;;;19.77;36.39
21433;BME280;18592;49.708;10.900;2022-08-07T02:11:43;99340.25;;;19.69;36.66
21433;BME280;18592;49.708;10.900;2022-08-07T02:14:09;99337.81;;;19.62;36.74
21433;BME280;18592;49.708;10.900;2022-08-07T02:16:34;99341.47;;;19.58;36.85
21433;BME280;18592;49.708;10.900;2022-08-07T02:18:38;99341.78;;;19.51;37.04
21433;BME280;18592;49.708;10.900;2022-08-07T02:20:51;99340.72;;;19.47;37.17
21433;BME280;18592;49.708;10.900;2022-08-07T02:23:02;99344.41;;;19.38;37.72
21433;BME280;18592;49.708;10.900;2022-08-07T02:25:09;99335.28;;;19.32;37.60
21433;BME280;18592;49.708;10.900;2022-08-07T02:27:27;99326.75;;;19.29;37.59
21433;BME280;18592;49.708;10.900;2022-08-07T02:29:35;99333.16;;;19.24;37.99
21433;BME280;18592;49.708;10.900;2022-08-07T02:31:51;99317.97;;;19.22;38.05
21433;BME280;18592;49.708;10.900;2022-08-07T02:33:56;99330.41;;;19.19;38.34
21433;BME280;18592;49.708;10.900;2022-08-07T02:36:16;99326.56;;;19.15;38.46
21433;BME280;18592;49.708;10.900;2022-08-07T02:38:40;99330.19;;;19.11;38.89
21433;BME280;18592;49.708;10.900;2022-08-07T02:40:59;99324.44;;;19.07;39.02
21433;BME280;18592;49.708;10.900;2022-08-07T02:43:06;99319.19;;;19.06;39.41
21433;BME280;18592;49.708;10.900;2022-08-07T02:45:11;99320.56;;;19.03;39.43
21433;BME280;18592;49.708;10.900;2022-08-07T02:47:34;99326.69;;;19.00;39.31
21433;BME280;18592;49.708;10.900;2022-08-07T02:49:50;99320.66;;;18.93;39.62
21433;BME280;18592;49.708;10.900;2022-08-07T02:52:04;99316.25;;;18.92;39.44
21433;BME280;18592;49.708;10.900;2022-08-07T02:54:10;99318.44;;;18.90;39.75
21433;BME280;18592;49.708;10.900;2022-08-07T02:56:18;99319.84;;;18.87;39.62
21433;BME280;18592;49.708;10.900;2022-08-07T02:58:23;99323.22;;;18.84;39.59
21433;BME280;18592;49.708;10.900;2022-08-07T03:00:32;99319.09;;;18.82;39.63
21433;BME280;18592;49.708;10.900;2022-08-07T03:02:40;99314.69;;;18.76;40.03
21433;BME280;18592;49.708;10.900;2022-08-07T03:04:57;99311.97;;;18.71;40.01
21433;BME280;18592;49.708;10.900;2022-08-07T03:07:06;99315.59;;;18.66;39.85
21433;BME280;18592;49.708;10.900;2022-08-07T03:09:14;99314.78;;;18.61;40.11
21433;BME280;18592;49.708;10.900;2022-08-07T03:11:37;99311.75;;;18.57;40.00
21433;BME280;18592;49.708;10.900;2022-08-07T03:14:00;99307.34;;;18.56;39.98
21433;BME280;18592;49.708;10.900;2022-08-07T03:16:03;99307.91;;;18.53;39.74
21433;BME280;18592;49.708;10.900;2022-08-07T03:18:05;99308.75;;;18.54;39.58
21433;BME280;18592;49.708;10.900;2022-08-07T03:20:10;99314.53;;;18.52;39.69
21433;BME280;18592;49.708;10.900;2022-08-07T03:22:14;99302.44;;;18.48;39.88
21433;BME280;18592;49.708;10.900;2022-08-07T03:24:20;99300.50;;;18.44;40.10
21433;BME280;18592;49.708;10.900;2022-08-07T03:26:31;99301.63;;;18.37;40.23
21433;BME280;18592;49.708;10.900;2022-08-07T03:28:40;99298.31;;;18.35;40.48
21433;BME280;18592;49.708;10.900;2022-08-07T03:30:45;99310.75;;;18.33;40.61
21433;BME280;18592;49.708;10.900;2022-08-07T03:32:48;99305.25;;;18.28;40.49
21433;BME280;18592;49.708;10.900;2022-08-07T03:35:02;99310.50;;;18.24;40.68
21433;BME280;18592;49.708;10.900;2022-08-07T03:37:20;99308.59;;;18.20;40.85
21433;BME280;18592;49.708;10.900;2022-08-07T03:39:32;99307.78;;;18.14;41.12
21433;BME280;18592;49.708;10.900;2022-08-07T03:41:56;99305.63;;;18.06;41.16
21433;BME280;18592;49.708;10.900;2022-08-07T03:44:02;99300.09;;;18.06;41.19
21433;BME280;18592;49.708;10.900;2022-08-07T03:46:06;99312.50;;;18.04;41.34
21433;BME280;18592;49.708;10.900;2022-08-07T03:48:20;99312.25;;;18.00;41.46
21433;BME280;18592;49.708;10.900;2022-08-07T03:50:24;99312.81;;;17.97;41.71
21433;BME280;18592;49.708;10.900;2022-08-07T03:52:30;99316.13;;;17.94;41.72
21433;BME280;18592;49.708;10.900;2022-08-07T03:54:37;99319.44;;;17.91;41.74
21433;BME280;18592;49.708;10.900;2022-08-07T03:56:57;99309.53;;;17.90;41.70
21433;BME280;18592;49.708;10.900;2022-08-07T03:59:11;99316.16;;;17.89;41.99
21433;BME280;18592;49.708;10.900;2022-08-07T04:01:21;99319.44;;;17.86;42.12
21433;BME280;18592;49.708;10.900;2022-08-07T04:03:24;99320.03;;;17.83;42.22
21433;BME280;18592;49.708;10.900;2022-08-07T04:05:26;99321.13;;;17.82;42.06
21433;BME280;18592;49.708;10.900;2022-08-07T04:07:45;99324.44;;;17.79;42.09
21433;BME280;18592;49.708;10.900;2022-08-07T04:09:53;99320.31;;;17.76;42.14
21433;BME280;18592;49.708;10.900;2022-08-07T04:11:58;99322.81;;;17.73;42.23
21433;BME280;18592;49.708;10.900;2022-08-07T04:14:19;99325.28;;;17.69;42.22
21433;BME280;18592;49.708;10.900;2022-08-07T04:16:41;99330.53;;;17.66;42.38
21433;BME280;18592;49.708;10.900;2022-08-07T04:19:00;99329.16;;;17.63;42.38
21433;BME280;18592;49.708;10.900;2022-08-07T04:21:14;99321.72;;;17.59;43.03
21433;BME280;18592;49.708;10.900;2022-08-07T04:23:17;99328.63;;;17.56;43.37
21433;BME280;18592;49.708;10.900;2022-08-07T04:25:23;99326.69;;;17.57;43.28
21433;BME280;18592;49.708;10.900;2022-08-07T04:27:29;99331.66;;;17.55;43.36
21433;BME280;18592;49.708;10.900;2022-08-07T04:29:39;99332.75;;;17.54;43.52
21433;BME280;18592;49.708;10.900;2022-08-07T04:32:07;99329.16;;;17.53;43.49
21433;BME280;18592;49.708;10.900;2022-08-07T04:34:11;99330.84;;;17.54;43.55
21433;BME280;18592;49.708;10.900;2022-08-07T04:36:18;99329.44;;;17.52;43.50
21433;BME280;18592;49.708;10.900;2022-08-07T04:38:26;99335.22;;;17.50;43.46
21433;BME280;18592;49.708;10.900;2022-08-07T04:40:30;99334.41;;;17.50;43.35
21433;BME280;18592;49.708;10.900;2022-08-07T04:42:33;99338.25;;;17.49;43.64
21433;BME280;18592;49.708;10.900;2022-08-07T04:44:37;99333.84;;;17.48;43.61
21433;BME280;18592;49.708;10.900;2022-08-07T04:47:34;99337.16;;;17.45;44.66
21433;BME280;18592;49.708;10.900;2022-08-07T04:50:14;99333.84;;;17.43;44.71
21433;BME280;18592;49.708;10.900;2022-08-07T04:53:07;99345.97;;;17.42;44.91
21433;BME280;18592;49.708;10.900;2022-08-07T04:55:36;99345.13;;;17.41;45.00
21433;BME280;18592;49.708;10.900;2022-08-07T04:58:10;99351.47;;;17.37;44.66
21433;BME280;18592;49.708;10.900;2022-08-07T05:00:47;99352.88;;;17.34;44.70
21433;BME280;18592;49.708;10.900;2022-08-07T05:03:00;99344.59;;;17.34;45.33
21433;BME280;18592;49.708;10.900;2022-08-07T05:05:29;99343.75;;;17.34;44.87
21433;BME280;18592;49.708;10.900;2022-08-07T05:08:02;99347.91;;;17.36;44.54
21433;BME280;18592;49.708;10.900;2022-08-07T05:10:34;99346.81;;;17.37;44.78
21433;BME280;18592;49.708;10.900;2022-08-07T05:12:47;99347.63;;;17.38;45.00
21433;BME280;18592;49.708;10.900;2022-08-07T05:15:06;99348.19;;;17.40;44.77
21433;BME280;18592;49.708;10.900;2022-08-07T05:17:27;99350.66;;;17.41;44.43
21433;BME280;18592;49.708;10.900;2022-08-07T05:19:51;99354.78;;;17.44;44.30
21433;BME280;18592;49.708;10.900;2022-08-07T05:21:57;99354.53;;;17.45;44.24
21433;BME280;18592;49.708;10.900;2022-08-07T05:24:12;99348.44;;;17.48;44.60
21433;BME280;18592;49.708;10.900;2022-08-07T05:26:20;99344.91;;;17.53;44.34
21433;BME280;18592;49.708;10.900;2022-08-07T05:28:32;99355.34;;;17.56;44.45
21433;BME280;18592;49.708;10.900;2022-08-07T05:30:35;99353.72;;;17.60;44.36
21433;BME280;18592;49.708;10.900;2022-08-07T05:32:41;99357.84;;;17.62;44.39
21433;BME280;18592;49.708;10.900;2022-08-07T05:34:45;99349.56;;;17.67;44.56
21433;BME280;18592;49.708;10.900;2022-08-07T05:36:52;99349.56;;;17.72;44.60
21433;BME280;18592;49.708;10.900;2022-08-07T05:39:04;99350.38;;;17.78;44.43
21433;BME280;18592;49.708;10.900;2022-08-07T05:41:31;99357.53;;;17.84;44.65
21433;BME280;18592;49.708;10.900;2022-08-07T05:43:54;99351.44;;;17.92;44.62
21433;BME280;18592;49.708;10.900;2022-08-07T05:46:15;99362.75;;;18.01;44.85
21433;BME280;18592;49.708;10.900;2022-08-07T05:48:18;99358.59;;;18.08;44.69
21433;BME280;18592;49.708;10.900;2022-08-07T05:50:27;99350.28;;;18.18;44.58
21433;BME280;18592;49.708;10.900;2022-08-07T05:52:30;99356.59;;;18.29;44.07
21433;BME280;18592;49.708;10.900;2022-08-07T05:54:35;99354.59;;;18.39;44.41
21433;BME280;18592;49.708;10.900;2022-08-07T05:56:55;99344.66;;;18.54;44.21
21433;BME280;18592;49.708;10.900;2022-08-07T05:59:01;99352.31;;;18.67;44.00
21433;BME280;18592;49.708;10.900;2022-08-07T06:01:08;99350.56;;;18.81;43.88
21433;BME280;18592;49.708;10.900;2022-08-07T06:03:13;99347.72;;;18.96;43.80
21433;BME280;18592;49.708;10.900;2022-08-07T06:05:16;99347.31;;;19.13;43.84
21433;BME280;18592;49.708;10.900;2022-08-07T06:07:23;99350.53;;;19.30;44.02
21433;BME280;18592;49.708;10.900;2022-08-07T06:09:45;99340.16;;;19.50;43.95
21433;BME280;18592;49.708;10.900;2022-08-07T06:12:07;99349.06;;;19.71;43.83
21433;BME280;18592;49.708;10.900;2022-08-07T06:14:08;99346.41;;;19.90;44.00
21433;BME280;18592;49.708;10.900;2022-08-07T06:16:31;99344.47;;;20.14;43.82
21433;BME280;18592;49.708;10.900;2022-08-07T06:18:36;99351.47;;;20.35;43.74
21433;BME280;18592;49.708;10.900;2022-08-07T06:20:39;99346.19;;;20.57;43.59
21433;BME280;18592;49.708;10.900;2022-08-07T06:23:01;99343.06;;;20.82;43.17
21433;BME280;18592;49.708;10.900;2022-08-07T06:25:25;99345.22;;;21.09;43.28
21433;BME280;18592;49.708;10.900;2022-08-07T06:27:35;99342.31;;;21.33;42.72
21433;BME280;18592;49.708;10.900;2022-08-07T06:29:57;99344.06;;;21.61;42.67
21433;BME280;18592;49.708;10.900;2022-08-07T06:31:59;99345.88;;;21.84;42.49
21433;BME280;18592;49.708;10.900;2022-08-07T06:34:02;99338.25;;;22.08;42.21
21433;BME280;18592;49.708;10.900;2022-08-07T06:36:04;99344.44;;;22.33;42.04
21433;BME280;18592;49.708;10.900;2022-08-07T06:38:20;99347.00;;;22.56;42.24
21433;BME280;18592;49.708;10.900;2022-08-07T06:40:24;99338.94;;;22.82;41.95
21433;BME280;18592;49.708;10.900;2022-08-07T06:42:35;99335.91;;;23.06;41.80
21433;BME280;18592;49.708;10.900;2022-08-07T06:44:57;99334.47;;;23.30;41.42
21433;BME280;18592;49.708;10.900;2022-08-07T06:46:59;99335.66;;;23.52;41.09
21433;BME280;18592;49.708;10.900;2022-08-07T06:49:16;99339.56;;;23.73;40.71
21433;BME280;18592;49.708;10.900;2022-08-07T06:51:27;99345.41;;;23.93;40.32
21433;BME280;18592;49.708;10.900;2022-08-07T06:53:39;99339.31;;;24.14;39.90
21433;BME280;18592;49.708;10.900;2022-08-07T06:56:04;99344.00;;;24.35;40.10
21433;BME280;18592;49.708;10.900;2022-08-07T06:58:15;99338.97;;;24.54;39.54
21433;BME280;18592;49.708;10.900;2022-08-07T07:00:38;99347.91;;;24.74;39.62
21433;BME280;18592;49.708;10.900;2022-08-07T07:02:43;99334.50;;;24.93;38.99
21433;BME280;18592;49.708;10.900;2022-08-07T07:04:57;99333.03;;;25.12;38.36
21433;BME280;18592;49.708;10.900;2022-08-07T07:07:01;99330.56;;;25.28;37.62
21433;BME280;18592;49.708;10.900;2022-08-07T07:11:24;99331.25;;;25.59;37.96
21433;BME280;18592;49.708;10.900;2022-08-07T07:13:48;99332.69;;;25.74;37.32
21433;BME280;18592;49.708;10.900;2022-08-07T07:16:08;99334.13;;;25.88;36.93
21433;BME280;18592;49.708;10.900;2022-08-07T07:18:24;99338.69;;;26.02;37.22
21433;BME280;18592;49.708;10.900;2022-08-07T07:20:51;99329.66;;;26.13;36.66
21433;BME280;18592;49.708;10.900;2022-08-07T07:22:55;99331.75;;;26.25;36.83
21433;BME280;18592;49.708;10.900;2022-08-07T07:25:17;99337.44;;;26.37;36.58
21433;BME280;18592;49.708;10.900;2022-08-07T07:27:55;99328.34;;;26.48;36.23
21433;BME280;18592;49.708;10.900;2022-08-07T07:30:04;99333.22;;;26.60;35.78
21433;BME280;18592;49.708;10.900;2022-08-07T07:32:13;99326.09;;;26.71;35.29
21433;BME280;18592;49.708;10.900;2022-08-07T07:34:25;99332.13;;;26.82;35.26
21433;BME280;18592;49.708;10.900;2022-08-07T07:36:33;99319.38;;;26.93;34.67
21433;BME280;18592;49.708;10.900;2022-08-07T07:38:41;99321.78;;;27.03;34.56
21433;BME280;18592;49.708;10.900;2022-08-07T07:40:47;99315.44;;;27.15;34.65
21433;BME280;18592;49.708;10.900;2022-08-07T07:42:53;99316.66;;;27.26;34.61
21433;BME280;18592;49.708;10.900;2022-08-07T07:44:56;99311.44;;;27.36;33.95
21433;BME280;18592;49.708;10.900;2022-08-07T07:47:00;99315.16;;;27.49;34.33
21433;BME280;18592;49.708;10.900;2022-08-07T07:49:25;99315.66;;;27.63;34.10
21433;BME280;18592;49.708;10.900;2022-08-07T07:51:48;99306.13;;;27.76;33.92
21433;BME280;18592;49.708;10.900;2022-08-07T07:53:59;99300.53;;;27.88;33.39
21433;BME280;18592;49.708;10.900;2022-08-07T07:56:05;99303.41;;;28.00;33.13
21433;BME280;18592;49.708;10.900;2022-08-07T07:58:09;99298.28;;;28.14;33.10
21433;BME280;18592;49.708;10.900;2022-08-07T08:00:13;99298.66;;;28.25;33.41
21433;BME280;18592;49.708;10.900;2022-08-07T08:02:31;99298.19;;;28.35;33.15
21433;BME280;18592;49.708;10.900;2022-08-07T08:04:37;99292.13;;;28.45;33.52
21433;BME280;18592;49.708;10.900;2022-08-07T08:06:43;99295.75;;;28.58;33.17
21433;BME280;18592;49.708;10.900;2022-08-07T08:08:54;99305.00;;;28.70;33.19
21433;BME280;18592;49.708;10.900;2022-08-07T08:11:02;99300.19;;;28.83;32.66
21433;BME280;18592;49.708;10.900;2022-08-07T08:13:05;99295.25;;;28.92;32.62
21433;BME280;18592;49.708;10.900;2022-08-07T08:15:15;99289.13;;;29.02;32.85
21433;BME280;18592;49.708;10.900;2022-08-07T08:17:24;99291.56;;;29.16;32.26
21433;BME280;18592;49.708;10.900;2022-08-07T08:19:50;99287.56;;;29.29;32.37
21433;BME280;18592;49.708;10.900;2022-08-07T08:22:13;99287.97;;;29.43;32.29
21433;BME280;18592;49.708;10.900;2022-08-07T08:24:38;99287.91;;;29.55;31.87
21433;BME280;18592;49.708;10.900;2022-08-07T08:27:21;99280.25;;;29.68;31.30
21433;BME280;18592;49.708;10.900;2022-08-07T08:29:30;99277.75;;;29.78;31.65
21433;BME280;18592;49.708;10.900;2022-08-07T08:31:55;99269.25;;;29.90;31.38
21433;BME280;18592;49.708;10.900;2022-08-07T08:34:18;99279.16;;;30.00;31.15
21433;BME280;18592;49.708;10.900;2022-08-07T08:36:31;99283.03;;;30.11;31.39
21433;BME280;18592;49.708;10.900;2022-08-07T08:38:37;99281.31;;;30.22;31.05
21433;BME280;18592;49.708;10.900;2022-08-07T08:40:47;99277.25;;;30.35;31.23
21433;BME280;18592;49.708;10.900;2022-08-07T08:42:55;99278.78;;;30.48;31.17
21433;BME280;18592;49.708;10.900;2022-08-07T08:47:34;99272.19;;;30.75;30.50
21433;BME280;18592;49.708;10.900;2022-08-07T08:50:10;99281.34;;;30.88;31.07
21433;BME280;18592;49.708;10.900;2022-08-07T08:52:35;99276.03;;;31.02;31.27
21433;BME280;18592;49.708;10.900;2022-08-07T08:54:58;99280.34;;;31.15;30.84
21433;BME280;18592;49.708;10.900;2022-08-07T08:57:13;99266.50;;;31.26;30.45
21433;BME280;18592;49.708;10.900;2022-08-07T08:59:44;99255.88;;;31.38;30.07
21433;BME280;18592;49.708;10.900;2022-08-07T09:04:10;99249.19;;;31.66;30.26
21433;BME280;18592;49.708;10.900;2022-08-07T09:06:38;99268.75;;;31.78;29.34
21433;BME280;18592;49.708;10.900;2022-08-07T09:11:42;99253.06;;;31.99;29.52
21433;BME280;18592;49.708;10.900;2022-08-07T09:14:15;99257.69;;;32.11;28.19
21433;BME280;18592;49.708;10.900;2022-08-07T09:16:38;99255.47;;;32.20;28.80
21433;BME280;18592;49.708;10.900;2022-08-07T09:27:21;99245.28;;;32.64;28.28
21433;BME280;18592;49.708;10.900;2022-08-07T09:32:24;99249.13;;;32.79;28.05
21433;BME280;18592;49.708;10.900;2022-08-07T09:35:02;99236.75;;;32.87;27.53
21433;BME280;18592;49.708;10.900;2022-08-07T09:37:44;99237.72;;;32.98;27.98
21433;BME280;18592;49.708;10.900;2022-08-07T09:40:27;99239.91;;;33.08;26.81
21433;BME280;18592;49.708;10.900;2022-08-07T09:42:59;99237.22;;;33.19;27.16
21433;BME280;18592;49.708;10.900;2022-08-07T09:45:19;99235.69;;;33.29;27.07
21433;BME280;18592;49.708;10.900;2022-08-07T09:54:59;99220.00;;;33.68;26.86
21433;BME280;18592;49.708;10.900;2022-08-07T09:57:20;99211.22;;;33.76;26.74
21433;BME280;18592;49.708;10.900;2022-08-07T10:02:33;99219.47;;;33.96;26.11
21433;BME280;18592;49.708;10.900;2022-08-07T10:07:57;99209.91;;;34.07;25.99
21433;BME280;18592;49.708;10.900;2022-08-07T10:24:48;99189.28;;;34.58;24.90
21433;BME280;18592;49.708;10.900;2022-08-07T10:27:13;99186.06;;;34.63;23.71
21433;BME280;18592;49.708;10.900;2022-08-07T10:39:50;99167.53;;;34.83;23.88
21433;BME280;18592;49.708;10.900;2022-08-07T10:42:17;99165.16;;;34.88;24.32
21433;BME280;18592;49.708;10.900;2022-08-07T10:44:44;99154.19;;;34.87;23.17
21433;BME280;18592;49.708;10.900;2022-08-07T10:46:58;99152.16;;;34.80;23.41
21433;BME280;18592;49.708;10.900;2022-08-07T10:49:49;99146.06;;;34.78;23.16
21433;BME280;18592;49.708;10.900;2022-08-07T10:54:44;99144.91;;;34.86;23.29
21433;BME280;18592;49.708;10.900;2022-08-07T10:59:51;99137.25;;;34.94;22.86
21433;BME280;18592;49.708;10.900;2022-08-07T11:02:05;99135.22;;;34.98;23.50
21433;BME280;18592;49.708;10.900;2022-08-07T11:04:48;99137.63;;;34.99;22.81
21433;BME280;18592;49.708;10.900;2022-08-07T11:07:17;99122.25;;;35.00;23.58
21433;BME280;18592;49.708;10.900;2022-08-07T11:09:46;99117.88;;;35.06;23.28
21433;BME280;18592;49.708;10.900;2022-08-07T11:12:13;99108.94;;;35.08;22.61
21433;BME280;18592;49.708;10.900;2022-08-07T11:14:37;99106.13;;;35.15;22.83
21433;BME280;18592;49.708;10.900;2022-08-07T11:17:03;99107.78;;;35.16;22.33
21433;BME280;18592;49.708;10.900;2022-08-07T11:19:15;99110.59;;;35.13;22.42
21433;BME280;18592;49.708;10.900;2022-08-07T11:23:48;99108.94;;;35.08;22.70
21433;BME280;18592;49.708;10.900;2022-08-07T11:53:02;99070.16;;;35.76;22.23
21433;BME280;18592;49.708;10.900;2022-08-07T11:55:32;99074.19;;;35.78;22.13
21433;BME280;18592;49.708;10.900;2022-08-07T12:00:39;99074.59;;;35.84;22.16
21433;BME280;18592;49.708;10.900;2022-08-07T12:03:10;99073.38;;;35.92;22.45
21433;BME280;18592;49.708;10.900;2022-08-07T12:06:09;99069.72;;;35.98;22.44
21433;BME280;18592;49.708;10.900;2022-08-07T12:08:54;99068.94;;;36.01;22.28
21433;BME280;18592;49.708;10.900;2022-08-07T12:11:21;99059.16;;;35.99;21.81
21433;BME280;18592;49.708;10.900;2022-08-07T12:13:41;99065.66;;;35.96;21.52
21433;BME280;18592;49.708;10.900;2022-08-07T12:15:53;99060.78;;;35.93;21.73
21433;BME280;18592;49.708;10.900;2022-08-07T12:18:28;99055.13;;;35.93;21.40
21433;BME280;18592;49.708;10.900;2022-08-07T12:20:45;99053.50;;;35.92;21.83
21433;BME280;18592;49.708;10.900;2022-08-07T12:23:13;99055.13;;;35.93;21.43
21433;BME280;18592;49.708;10.900;2022-08-07T12:25:33;99056.75;;;35.94;21.53
21433;BME280;18592;49.708;10.900;2022-08-07T12:28:35;99049.03;;;35.98;21.74
21433;BME280;18592;49.708;10.900;2022-08-07T12:30:48;99061.63;;;36.04;21.88
21433;BME280;18592;49.708;10.900;2022-08-07T12:33:00;99047.00;;;36.05;21.90
21433;BME280;18592;49.708;10.900;2022-08-07T12:35:20;99047.41;;;36.11;21.92
21433;BME280;18592;49.708;10.900;2022-08-07T12:37:25;99047.84;;;36.13;21.91
21433;BME280;18592;49.708;10.900;2022-08-07T12:39:48;99042.94;;;36.13;21.96
21433;BME280;18592;49.708;10.900;2022-08-07T12:41:53;99055.50;;;36.16;21.72
21433;BME280;18592;49.708;10.900;2022-08-07T12:43:58;99047.81;;;36.16;22.00
21433;BME280;18592;49.708;10.900;2022-08-07T12:51:25;99043.78;;;36.07;21.78
21433;BME280;18592;49.708;10.900;2022-08-07T12:54:08;99036.88;;;36.01;21.62
21433;BME280;18592;49.708;10.900;2022-08-07T12:56:39;99041.75;;;35.97;21.59
21433;BME280;18592;49.708;10.900;2022-08-07T12:58:51;99031.63;;;35.92;21.48
21433;BME280;18592;49.708;10.900;2022-08-07T13:06:12;99020.66;;;35.94;21.52
21433;BME280;18592;49.708;10.900;2022-08-07T13:08:42;99015.78;;;35.95;21.39
21433;BME280;18592;49.708;10.900;2022-08-07T13:11:24;99020.66;;;35.91;21.55
21433;BME280;18592;49.708;10.900;2022-08-07T13:14:18;99012.16;;;35.87;21.60
21433;BME280;18592;49.708;10.900;2022-08-07T13:21:18;99009.69;;;35.93;21.45
21433;BME280;18592;49.708;10.900;2022-08-07T13:24:03;98998.34;;;35.96;21.95
21433;BME280;18592;49.708;10.900;2022-08-07T13:26:24;99002.41;;;35.99;21.86
21433;BME280;18592;49.708;10.900;2022-08-07T13:28:40;99002.44;;;36.02;22.20
21433;BME280;18592;49.708;10.900;2022-08-07T13:30:52;98991.47;;;36.01;22.04
21433;BME280;18592;49.708;10.900;2022-08-07T13:33:18;98989.84;;;36.00;21.98
21433;BME280;18592;49.708;10.900;2022-08-07T13:35:47;98989.41;;;35.98;22.05
21433;BME280;18592;49.708;10.900;2022-08-07T13:38:38;98980.88;;;35.98;21.57